Time;durP1;ratioP1;P1;durP2;ratioP2;P2;SDS_P1;SDS_P2;PMS_P1;PMS_P2;Temp;Humidity;BMP_temperature;BMP_pressure;BME280_temperature;BME280_humidity;BME280_pressure;Samples;Min_cycle;Max_cycle;Signal;HPM_P1;HPM_P2
2022/12/19 00:01:14;;;;;;;28.83;13.57;;;0.20;99.90;;;;;;4128939;28;20202;-67
2022/12/19 00:03:15;;;;;;;32.07;14.43;;;0.20;99.60;;;;;;4114429;28;20242;-66
2022/12/19 00:05:16;;;;;;;30.97;13.30;;;0.30;99.40;;;;;;4141255;28;20430;-67
2022/12/19 00:07:17;;;;;;;34.43;15.20;;;0.30;98.90;;;;;;4132340;28;20610;-67
2022/12/19 00:09:17;;;;;;;43.07;20.30;;;0.10;99.40;;;;;;4140936;28;20186;-67
2022/12/19 00:11:21;;;;;;;40.80;19.50;;;0.00;99.50;;;;;;4133328;28;20228;-67
2022/12/19 00:13:22;;;;;;;29.43;15.97;;;0.00;99.70;;;;;;4135216;28;20241;-66
2022/12/19 00:15:23;;;;;;;40.93;17.47;;;0.10;99.50;;;;;;4111192;28;20458;-65
2022/12/19 00:17:23;;;;;;;36.23;17.93;;;0.20;99.30;;;;;;4127763;28;20457;-66
2022/12/19 00:19:24;;;;;;;43.03;17.93;;;0.10;99.20;;;;;;4129414;28;20186;-65
2022/12/19 00:21:29;;;;;;;39.50;18.57;;;0.10;99.90;;;;;;4111904;28;20175;-66
2022/12/19 00:23:32;;;;;;;44.17;19.97;;;0.00;99.90;;;;;;4129192;28;20241;-65
2022/12/19 00:25:33;;;;;;;38.40;16.97;;;0.00;99.90;;;;;;4127235;28;20476;-65
2022/12/19 00:27:35;;;;;;;29.40;14.03;;;0.10;99.90;;;;;;4128732;28;20445;-65
2022/12/19 00:29:36;;;;;;;30.33;13.87;;;0.10;99.40;;;;;;4105530;28;20647;-66
2022/12/19 00:31:36;;;;;;;27.90;12.33;;;0.10;99.40;;;;;;4113356;28;20565;-66
2022/12/19 00:33:37;;;;;;;25.13;11.67;;;0.00;99.20;;;;;;4113205;28;20190;-66
2022/12/19 00:35:38;;;;;;;27.23;12.27;;;0.00;99.30;;;;;;4112969;28;20175;-66
2022/12/19 00:37:39;;;;;;;24.90;11.60;;;0.00;99.10;;;;;;4112456;28;20270;-66
2022/12/19 00:39:40;;;;;;;29.27;12.13;;;-0.30;99.70;;;;;;4113161;28;20266;-66
2022/12/19 00:41:41;;;;;;;25.27;11.77;;;-0.50;99.90;;;;;;4112969;28;20895;-66
2022/12/19 00:43:42;;;;;;;24.60;11.60;;;-0.40;99.90;;;;;;4108948;28;20261;-66
2022/12/19 00:45:43;;;;;;;25.43;11.33;;;-0.20;99.90;;;;;;4129241;28;20955;-65
2022/12/19 00:47:44;;;;;;;24.27;11.07;;;0.00;99.90;;;;;;4128389;28;20438;-65
2022/12/19 00:49:44;;;;;;;28.83;12.03;;;-0.20;99.90;;;;;;4111845;28;20185;-66
2022/12/19 00:51:45;;;;;;;24.47;11.63;;;-0.20;99.90;;;;;;4111719;28;20646;-65
2022/12/19 00:53:47;;;;;;;26.93;11.27;;;-0.10;99.90;;;;;;4129327;28;20756;-65
2022/12/19 00:55:47;;;;;;;26.07;10.67;;;-0.10;99.90;;;;;;4129128;28;20205;-65
2022/12/19 00:57:49;;;;;;;24.47;11.63;;;-0.20;99.90;;;;;;4128266;28;20445;-65
2022/12/19 00:59:49;;;;;;;32.63;13.33;;;-0.10;99.90;;;;;;4129010;28;20218;-65
2022/12/19 01:01:50;;;;;;;35.97;14.57;;;-0.10;99.90;;;;;;4111551;28;20839;-66
2022/12/19 01:03:51;;;;;;;30.40;11.77;;;-0.30;99.90;;;;;;4129084;28;20586;-65
2022/12/19 01:05:52;;;;;;;31.23;12.60;;;-0.30;99.90;;;;;;4113451;28;20195;-65
2022/12/19 01:07:52;;;;;;;23.63;11.17;;;-0.30;99.90;;;;;;4130019;28;20205;-66
2022/12/19 01:09:53;;;;;;;23.83;10.80;;;-0.20;99.90;;;;;;4114652;28;20169;-66
2022/12/19 01:14:13;;;;;;;27.70;11.17;;;-0.30;99.90;;;;;;4132100;28;20216;-66
2022/12/19 01:16:14;;;;;;;25.77;12.20;;;-0.20;99.90;;;;;;4114731;28;20466;-66
2022/12/19 01:18:15;;;;;;;22.40;10.17;;;0.00;99.90;;;;;;4131043;28;20480;-65
2022/12/19 01:20:19;;;;;;;28.27;12.90;;;0.10;99.90;;;;;;4131796;28;20182;-66
2022/12/19 01:22:20;;;;;;;30.93;12.43;;;0.20;99.90;;;;;;4115086;28;20202;-65
2022/12/19 01:24:21;;;;;;;31.67;13.63;;;0.20;99.90;;;;;;4114389;28;20427;-66
2022/12/19 01:26:21;;;;;;;34.83;14.33;;;0.10;99.90;;;;;;4114029;28;20176;-65
2022/12/19 01:28:23;;;;;;;32.50;13.67;;;0.00;99.90;;;;;;4130356;28;20198;-64
2022/12/19 01:30:25;;;;;;;31.33;13.80;;;0.00;99.90;;;;;;4131839;28;20539;-64
2022/12/19 01:32:25;;;;;;;31.77;13.70;;;0.10;99.90;;;;;;4130619;28;20437;-64
2022/12/19 01:34:27;;;;;;;30.13;13.80;;;0.20;99.90;;;;;;4131681;28;20426;-64
2022/12/19 01:36:28;;;;;;;28.33;13.60;;;0.30;99.90;;;;;;4113647;28;20674;-65
2022/12/19 01:38:28;;;;;;;30.10;14.17;;;0.30;99.90;;;;;;4114608;28;20485;-65
2022/12/19 01:40:29;;;;;;;27.57;12.17;;;0.50;99.90;;;;;;4131485;28;20429;-65
2022/12/19 01:42:35;;;;;;;29.70;13.00;;;0.50;99.90;;;;;;4131525;28;20218;-65
2022/12/19 01:44:36;;;;;;;32.60;13.93;;;0.40;99.90;;;;;;4114307;28;20206;-65
2022/12/19 01:46:49;;;;;;;34.33;14.10;;;0.40;99.90;;;;;;4131011;28;20846;-65
2022/12/19 01:48:49;;;;;;;31.43;13.47;;;0.50;99.90;;;;;;4130357;28;20689;-65
2022/12/19 01:50:59;;;;;;;32.50;13.73;;;0.60;99.90;;;;;;4131426;28;20491;-65
2022/12/19 01:53:01;;;;;;;33.90;15.03;;;0.70;99.50;;;;;;4114011;28;20178;-65
2022/12/19 01:55:02;;;;;;;32.47;13.87;;;0.70;99.30;;;;;;4130370;28;20426;-65
2022/12/19 01:57:07;;;;;;;34.00;14.07;;;0.50;99.90;;;;;;4113402;28;20446;-65
2022/12/19 01:59:13;;;;;;;30.43;13.50;;;0.50;99.90;;;;;;4130099;28;20189;-65
2022/12/19 02:01:16;;;;;;;25.73;11.60;;;0.60;99.90;;;;;;4113918;28;20854;-65
2022/12/19 02:03:27;;;;;;;32.63;13.63;;;0.50;99.90;;;;;;4129899;28;20465;-65
2022/12/19 02:05:29;;;;;;;29.83;13.93;;;0.60;99.90;;;;;;4113972;28;20913;-65
2022/12/19 02:07:31;;;;;;;30.90;14.17;;;0.70;99.90;;;;;;4113195;28;20930;-65
2022/12/19 02:09:33;;;;;;;31.17;13.97;;;0.80;99.70;;;;;;4113684;28;20427;-65
2022/12/19 02:11:34;;;;;;;31.30;13.50;;;0.90;99.90;;;;;;4131152;28;20432;-65
2022/12/19 02:13:35;;;;;;;26.33;11.70;;;0.90;99.70;;;;;;4130955;28;20808;-65
2022/12/19 02:15:51;;;;;;;29.93;12.90;;;0.90;99.10;;;;;;4130698;28;20182;-65
2022/12/19 02:18:30;;;;;;;26.13;11.83;;;0.90;99.20;;;;;;4128555;28;20206;-65
2022/12/19 02:21:12;;;;;;;34.10;14.83;;;0.90;99.40;;;;;;4129792;28;20413;-65
2022/12/19 02:24:01;;;;;;;27.60;12.70;;;0.80;99.50;;;;;;4113731;28;20446;-65
2022/12/19 02:26:55;;;;;;;27.40;11.83;;;0.70;99.80;;;;;;4130981;28;20936;-65
2022/12/19 02:29:49;;;;;;;28.00;12.77;;;0.80;99.70;;;;;;4113979;28;20426;-65
2022/12/19 02:32:41;;;;;;;30.70;12.40;;;0.90;99.50;;;;;;4126096;28;20418;-65
2022/12/19 02:35:12;;;;;;;29.77;11.03;;;0.90;99.30;;;;;;4093683;28;20451;-64
2022/12/19 02:37:23;;;;;;;29.63;13.10;;;1.10;99.20;;;;;;4114133;28;20439;-65
2022/12/19 02:39:33;;;;;;;29.07;12.07;;;1.00;99.30;;;;;;4098380;29;20419;-64
2022/12/19 02:41:45;;;;;;;27.67;12.23;;;0.90;99.50;;;;;;4097526;29;20455;-65
2022/12/19 02:43:49;;;;;;;34.53;14.10;;;0.80;99.90;;;;;;4097362;29;20439;-65
2022/12/19 02:45:51;;;;;;;30.03;12.27;;;0.70;99.90;;;;;;4097339;29;20420;-65
2022/12/19 02:47:52;;;;;;;30.83;13.43;;;0.80;99.90;;;;;;4096563;29;20893;-64
2022/12/19 02:49:52;;;;;;;38.70;15.80;;;0.90;99.90;;;;;;4114641;28;20497;-65
2022/12/19 02:51:53;;;;;;;29.37;12.07;;;0.90;99.90;;;;;;4098308;29;20439;-65
2022/12/19 02:53:54;;;;;;;29.90;12.53;;;0.90;99.90;;;;;;4115318;28;20191;-65
2022/12/19 02:56:31;;;;;;;29.17;13.00;;;0.90;99.90;;;;;;4114596;28;20195;-65
2022/12/19 02:58:58;;;;;;;31.10;13.17;;;0.90;99.90;;;;;;4116925;28;20226;-65
2022/12/19 03:01:13;;;;;;;28.20;12.30;;;1.00;99.90;;;;;;4097507;29;20431;-64
2022/12/19 03:04:00;;;;;;;26.63;11.80;;;1.10;99.90;;;;;;4113233;28;20977;-66
2022/12/19 03:06:37;;;;;;;32.70;13.40;;;1.10;99.90;;;;;;4097702;29;21009;-65
2022/12/19 03:08:54;;;;;;;31.77;13.10;;;0.90;99.90;;;;;;4096658;29;21064;-65
2022/12/19 03:11:04;;;;;;;33.00;13.07;;;0.90;99.90;;;;;;4097254;29;20553;-65
2022/12/19 03:13:13;;;;;;;25.20;11.23;;;0.90;99.90;;;;;;4114265;28;20936;-65
2022/12/19 03:15:15;;;;;;;34.77;12.93;;;0.80;99.90;;;;;;4096834;29;20423;-65
2022/12/19 03:17:18;;;;;;;33.47;13.87;;;0.90;99.90;;;;;;4095934;29;20454;-64
2022/12/19 03:19:28;;;;;;;32.30;13.27;;;1.00;99.90;;;;;;4114052;28;20438;-65
2022/12/19 03:21:39;;;;;;;25.87;12.00;;;1.00;99.90;;;;;;4108863;28;20482;-65
2022/12/19 03:23:40;;;;;;;34.63;14.10;;;0.90;99.90;;;;;;4112820;28;20419;-64
2022/12/19 03:25:47;;;;;;;25.93;12.13;;;1.00;99.90;;;;;;4096920;29;20435;-66
2022/12/19 03:27:50;;;;;;;26.60;11.17;;;1.10;99.90;;;;;;4111662;28;20446;-65
2022/12/19 03:30:11;;;;;;;25.63;11.13;;;1.00;99.90;;;;;;4130103;28;20414;-65
2022/12/19 03:32:14;;;;;;;23.93;10.63;;;1.10;99.90;;;;;;4112772;28;20487;-65
2022/12/19 03:34:27;;;;;;;37.27;14.00;;;1.20;99.90;;;;;;4128657;28;20472;-65
2022/12/19 03:36:34;;;;;;;28.83;12.10;;;1.20;99.90;;;;;;4110563;28;20446;-64
2022/12/19 03:38:37;;;;;;;31.43;13.20;;;1.10;99.90;;;;;;4112617;28;20458;-65
2022/12/19 03:40:42;;;;;;;28.23;12.60;;;1.20;99.90;;;;;;4129995;28;20438;-64
2022/12/19 03:45:06;;;;;;;29.43;12.57;;;1.30;99.90;;;;;;4115253;28;20441;-65
2022/12/19 03:47:27;;;;;;;31.47;12.80;;;1.30;99.90;;;;;;4111836;28;20446;-65
2022/12/19 03:49:27;;;;;;;36.53;14.50;;;1.30;99.90;;;;;;4112532;28;20872;-65
2022/12/19 03:51:45;;;;;;;38.10;14.87;;;1.20;99.90;;;;;;4129710;28;20421;-65
2022/12/19 03:54:05;;;;;;;37.37;14.67;;;1.10;99.90;;;;;;4129628;28;20591;-65
2022/12/19 03:56:32;;;;;;;29.97;11.80;;;1.20;99.90;;;;;;4112319;28;20481;-64
2022/12/19 03:58:37;;;;;;;34.47;13.17;;;1.20;99.90;;;;;;4129585;28;20862;-65
2022/12/19 04:00:42;;;;;;;35.27;12.77;;;1.30;99.90;;;;;;4112444;28;20423;-65
2022/12/19 04:02:48;;;;;;;29.77;12.97;;;1.20;99.90;;;;;;4112222;28;20520;-65
2022/12/19 04:05:04;;;;;;;24.93;11.50;;;1.20;99.90;;;;;;4112383;28;20531;-65
2022/12/19 04:07:06;;;;;;;32.40;13.80;;;1.10;99.90;;;;;;4111846;28;21088;-64
2022/12/19 04:09:09;;;;;;;27.03;11.47;;;1.10;99.90;;;;;;4096269;29;20443;-65
2022/12/19 04:11:18;;;;;;;33.97;13.27;;;1.20;99.90;;;;;;4128385;28;20460;-65
2022/12/19 04:13:30;;;;;;;30.63;13.47;;;1.30;99.90;;;;;;4112135;28;20430;-65
2022/12/19 04:15:50;;;;;;;32.73;15.07;;;1.20;99.90;;;;;;4112299;28;20419;-65
2022/12/19 04:17:57;;;;;;;33.10;12.23;;;1.20;99.90;;;;;;4129076;28;20452;-65
2022/12/19 04:20:06;;;;;;;35.93;13.60;;;1.30;99.90;;;;;;4112480;28;20922;-65
2022/12/19 04:22:15;;;;;;;29.20;12.30;;;1.30;99.90;;;;;;4112194;28;20470;-65
2022/12/19 04:24:25;;;;;;;32.80;11.97;;;1.30;99.90;;;;;;4129416;28;20405;-65
2022/12/19 04:26:27;;;;;;;33.40;12.93;;;1.30;99.90;;;;;;4111458;28;20426;-65
2022/12/19 04:28:44;;;;;;;27.63;11.70;;;1.30;99.90;;;;;;4111859;28;20442;-65
2022/12/19 04:30:47;;;;;;;29.93;12.23;;;1.30;99.90;;;;;;4112044;28;21207;-65
2022/12/19 04:32:49;;;;;;;26.90;11.40;;;1.30;99.90;;;;;;4111777;28;20427;-65
2022/12/19 04:34:50;;;;;;;31.60;12.33;;;1.40;99.90;;;;;;4129238;28;20517;-66
2022/12/19 04:36:50;;;;;;;28.17;12.57;;;1.40;99.90;;;;;;4109739;28;21094;-65
2022/12/19 04:38:51;;;;;;;26.17;11.03;;;1.30;99.90;;;;;;4096304;28;20217;-65
2022/12/19 04:40:52;;;;;;;29.67;13.20;;;1.40;99.90;;;;;;4098392;29;20184;-66
2022/12/19 04:42:53;;;;;;;37.40;13.67;;;1.40;99.90;;;;;;4116016;28;20821;-65
2022/12/19 04:44:53;;;;;;;22.37;9.47;;;1.40;99.90;;;;;;4116109;28;20654;-66
2022/12/19 04:46:54;;;;;;;27.00;11.03;;;1.50;99.90;;;;;;4115592;28;20535;-65
2022/12/19 04:48:55;;;;;;;21.67;10.33;;;1.50;99.90;;;;;;4116234;28;20229;-66
2022/12/19 04:50:56;;;;;;;21.53;10.60;;;1.50;99.90;;;;;;4098951;29;20238;-65
2022/12/19 04:52:56;;;;;;;23.20;10.83;;;1.60;99.90;;;;;;4116113;28;20179;-66
2022/12/19 04:54:57;;;;;;;22.27;9.57;;;1.60;99.90;;;;;;4115879;28;20190;-66
2022/12/19 04:56:58;;;;;;;20.63;9.37;;;1.50;99.90;;;;;;4115476;28;20685;-66
2022/12/19 04:58:59;;;;;;;19.93;8.13;;;1.60;99.90;;;;;;4116031;28;20202;-66
2022/12/19 05:01:07;;;;;;;17.00;7.97;;;1.60;99.90;;;;;;4107925;28;20195;-65
2022/12/19 05:03:08;;;;;;;24.73;10.27;;;1.30;99.90;;;;;;4114697;28;20937;-65
2022/12/19 05:05:08;;;;;;;19.67;9.17;;;1.30;99.90;;;;;;4114404;28;20441;-66
2022/12/19 05:07:09;;;;;;;19.93;8.43;;;1.40;99.90;;;;;;4131335;28;20206;-66
2022/12/19 05:09:10;;;;;;;20.53;9.73;;;1.50;99.90;;;;;;4131834;28;20196;-66
2022/12/19 05:11:14;;;;;;;27.73;10.10;;;1.50;99.90;;;;;;4114400;28;20219;-66
2022/12/19 05:13:15;;;;;;;26.97;13.57;;;1.60;99.90;;;;;;4131724;28;20433;-66
2022/12/19 05:15:16;;;;;;;26.10;11.47;;;1.60;99.90;;;;;;4131614;28;20520;-66
2022/12/19 05:17:16;;;;;;;24.70;11.33;;;1.60;99.90;;;;;;4130964;28;20214;-65
2022/12/19 05:19:17;;;;;;;26.03;11.20;;;1.60;99.90;;;;;;4131745;28;20271;-65
2022/12/19 05:21:18;;;;;;;20.53;9.70;;;1.50;99.90;;;;;;4131589;28;20549;-65
2022/12/19 05:23:19;;;;;;;21.20;10.17;;;1.40;99.90;;;;;;4131550;28;20294;-65
2022/12/19 05:25:20;;;;;;;22.90;9.77;;;1.40;99.90;;;;;;4131718;28;20185;-66
2022/12/19 05:27:20;;;;;;;20.43;9.20;;;1.40;99.90;;;;;;4130903;28;20812;-65
2022/12/19 05:29:21;;;;;;;18.23;8.57;;;1.50;99.90;;;;;;4131703;28;20893;-66
2022/12/19 05:31:22;;;;;;;19.13;9.73;;;1.50;99.90;;;;;;4131528;28;20179;-65
2022/12/19 05:33:23;;;;;;;28.30;13.60;;;1.40;99.90;;;;;;4131589;28;20549;-65
2022/12/19 05:35:23;;;;;;;27.33;13.47;;;1.40;99.90;;;;;;4124973;28;20322;-65
2022/12/19 05:37:24;;;;;;;24.87;11.57;;;1.50;99.90;;;;;;4108842;28;20291;-65
2022/12/19 05:39:24;;;;;;;27.03;10.90;;;1.60;99.90;;;;;;4131178;28;20182;-65
2022/12/19 05:41:25;;;;;;;24.07;11.07;;;1.70;99.90;;;;;;4131552;28;20717;-66
2022/12/19 05:43:26;;;;;;;21.07;9.50;;;1.70;99.90;;;;;;4131409;28;20701;-66
2022/12/19 05:45:27;;;;;;;25.07;11.13;;;1.80;99.90;;;;;;4131249;28;20183;-65
2022/12/19 05:47:28;;;;;;;22.17;10.10;;;1.70;99.90;;;;;;4130782;28;20482;-65
2022/12/19 05:49:28;;;;;;;24.73;10.97;;;1.50;99.90;;;;;;4131114;28;20213;-67
2022/12/19 05:51:29;;;;;;;21.43;9.57;;;1.30;99.90;;;;;;4113753;28;20191;-66
2022/12/19 05:53:30;;;;;;;22.27;10.90;;;1.40;99.90;;;;;;4131163;28;20183;-66
2022/12/19 05:55:31;;;;;;;28.13;10.90;;;1.50;99.90;;;;;;4113675;28;20194;-66
2022/12/19 05:57:32;;;;;;;28.50;13.80;;;1.60;99.90;;;;;;4130309;28;20206;-65
2022/12/19 05:59:32;;;;;;;32.07;12.70;;;1.60;99.90;;;;;;4130966;28;20222;-65
2022/12/19 06:01:33;;;;;;;25.70;11.70;;;1.70;99.90;;;;;;4131006;28;20186;-65
2022/12/19 06:03:34;;;;;;;25.30;12.00;;;1.80;99.90;;;;;;4113690;28;20697;-64
2022/12/19 06:05:38;;;;;;;27.23;11.43;;;1.80;99.90;;;;;;4113494;28;20213;-66
2022/12/19 06:07:39;;;;;;;22.13;10.90;;;1.90;99.90;;;;;;4113566;28;20991;-65
2022/12/19 06:09:39;;;;;;;24.67;11.50;;;1.90;99.90;;;;;;4130992;28;20418;-65
2022/12/19 06:11:40;;;;;;;26.17;11.20;;;1.60;99.90;;;;;;4113607;28;20182;-65
2022/12/19 06:13:41;;;;;;;29.40;12.00;;;1.70;99.90;;;;;;4130830;28;20194;-66
2022/12/19 06:15:41;;;;;;;28.30;12.17;;;1.80;99.90;;;;;;4130893;28;20191;-66
2022/12/19 06:17:42;;;;;;;39.53;15.37;;;1.70;99.90;;;;;;4130048;28;20210;-66
2022/12/19 06:19:43;;;;;;;32.87;13.53;;;1.60;99.90;;;;;;4130786;28;20178;-65
2022/12/19 06:21:44;;;;;;;31.83;12.97;;;1.60;99.90;;;;;;4130679;28;20194;-66
2022/12/19 06:23:45;;;;;;;35.90;15.57;;;1.60;99.90;;;;;;4113372;28;20422;-66
2022/12/19 06:25:46;;;;;;;34.93;15.47;;;1.60;99.90;;;;;;4113352;28;20560;-65
2022/12/19 06:27:47;;;;;;;42.57;17.13;;;1.40;99.90;;;;;;4129931;28;20537;-65
2022/12/19 06:29:47;;;;;;;42.87;15.30;;;1.40;99.90;;;;;;4130628;28;20191;-65
2022/12/19 06:31:48;;;;;;;39.23;16.10;;;1.40;99.90;;;;;;4130545;28;20216;-65
2022/12/19 06:33:49;;;;;;;39.60;16.70;;;1.40;99.90;;;;;;4130646;28;20178;-66
2022/12/19 06:35:59;;;;;;;34.40;16.03;;;1.30;99.90;;;;;;4130547;28;20670;-66
2022/12/19 06:37:59;;;;;;;39.13;14.67;;;1.30;99.90;;;;;;4112426;28;20993;-65
2022/12/19 06:40:00;;;;;;;35.10;14.67;;;1.30;99.90;;;;;;4130307;28;20469;-66
2022/12/19 06:44:20;;;;;;;38.20;15.03;;;1.30;99.90;;;;;;4130365;28;20736;-65
2022/12/19 06:46:20;;;;;;;38.90;15.13;;;1.40;99.90;;;;;;4129893;28;20502;-64
2022/12/19 06:48:21;;;;;;;35.07;15.23;;;1.30;99.90;;;;;;4104758;28;20212;-66
2022/12/19 06:50:22;;;;;;;36.47;17.37;;;1.30;99.90;;;;;;4114330;28;20701;-65
2022/12/19 06:52:23;;;;;;;40.00;17.37;;;1.20;99.90;;;;;;4114436;28;20226;-64
2022/12/19 06:54:23;;;;;;;41.40;17.33;;;1.10;99.90;;;;;;4114235;28;20201;-65
2022/12/19 06:56:24;;;;;;;39.73;17.50;;;1.10;99.90;;;;;;4096280;29;20183;-65
2022/12/19 06:58:25;;;;;;;34.97;15.97;;;1.10;99.90;;;;;;4113768;28;20948;-66
2022/12/19 07:00:26;;;;;;;40.27;16.33;;;1.10;99.90;;;;;;4114049;28;20208;-65
2022/12/19 07:02:30;;;;;;;35.57;15.33;;;1.00;99.90;;;;;;4113411;28;20470;-66
2022/12/19 07:04:40;;;;;;;38.80;15.43;;;0.80;99.90;;;;;;4097045;29;20271;-65
2022/12/19 07:06:41;;;;;;;43.70;16.60;;;1.00;99.90;;;;;;4101694;28;20431;-65
2022/12/19 07:08:42;;;;;;;37.13;16.33;;;0.90;99.90;;;;;;4130425;28;20835;-65
2022/12/19 07:10:42;;;;;;;42.70;18.00;;;0.90;99.90;;;;;;4130080;28;20178;-65
2022/12/19 07:12:43;;;;;;;39.80;16.27;;;1.00;99.90;;;;;;4112408;28;20183;-66
2022/12/19 07:14:44;;;;;;;41.57;17.37;;;0.90;99.90;;;;;;4129664;28;20194;-66
2022/12/19 07:16:46;;;;;;;37.27;15.07;;;0.90;99.90;;;;;;4129107;28;20280;-65
2022/12/19 07:18:48;;;;;;;34.80;15.47;;;0.90;99.90;;;;;;4129977;28;20213;-66
2022/12/19 07:20:49;;;;;;;34.57;14.40;;;0.90;99.90;;;;;;4112594;28;20422;-66
2022/12/19 07:22:49;;;;;;;36.50;14.40;;;0.90;99.90;;;;;;4129652;28;20477;-66
2022/12/19 07:24:50;;;;;;;36.63;14.60;;;1.00;99.90;;;;;;4129880;28;20672;-66
2022/12/19 07:26:51;;;;;;;43.37;17.00;;;1.00;99.90;;;;;;4127832;28;20282;-65
2022/12/19 07:28:52;;;;;;;42.67;16.93;;;1.10;99.90;;;;;;4129746;28;20642;-65
2022/12/19 07:30:53;;;;;;;39.07;15.67;;;1.10;99.90;;;;;;4130284;28;20187;-66
2022/12/19 07:32:54;;;;;;;40.87;16.37;;;1.20;99.90;;;;;;4129791;28;20908;-65
2022/12/19 07:34:54;;;;;;;44.67;15.83;;;1.20;99.90;;;;;;4096362;29;20206;-65
2022/12/19 07:36:55;;;;;;;38.80;17.93;;;1.30;99.90;;;;;;4129165;28;20195;-65
2022/12/19 07:38:56;;;;;;;36.80;14.90;;;1.30;99.90;;;;;;4129878;28;20186;-64
2022/12/19 07:41:00;;;;;;;40.63;14.97;;;1.20;99.90;;;;;;4129585;28;20263;-66
2022/12/19 07:43:04;;;;;;;42.23;15.60;;;1.30;99.90;;;;;;4129566;28;20210;-65
2022/12/19 07:45:06;;;;;;;42.50;15.93;;;1.50;99.90;;;;;;4128342;28;20859;-65
2022/12/19 07:47:07;;;;;;;35.23;15.03;;;1.50;99.90;;;;;;4127741;28;20541;-65
2022/12/19 07:49:08;;;;;;;38.57;15.83;;;1.60;99.90;;;;;;4129708;28;20429;-65
2022/12/19 07:51:09;;;;;;;33.43;13.37;;;1.70;99.90;;;;;;4129493;28;20430;-66
2022/12/19 07:53:09;;;;;;;31.27;12.03;;;1.70;99.90;;;;;;4129670;28;20182;-66
2022/12/19 07:55:10;;;;;;;33.23;14.33;;;1.70;99.90;;;;;;4129577;28;20197;-66
2022/12/19 07:57:11;;;;;;;27.90;13.03;;;1.80;99.90;;;;;;4128843;28;20236;-65
2022/12/19 07:59:11;;;;;;;29.97;13.83;;;1.90;99.90;;;;;;4129693;28;20197;-66
2022/12/19 08:01:12;;;;;;;27.63;12.73;;;2.00;99.90;;;;;;4129340;28;20650;-66
2022/12/19 08:03:13;;;;;;;30.23;12.90;;;2.10;99.90;;;;;;4129410;28;20218;-66
2022/12/19 08:05:14;;;;;;;29.90;12.93;;;2.30;99.90;;;;;;4129515;28;20672;-66
2022/12/19 08:07:15;;;;;;;35.43;15.07;;;2.30;99.90;;;;;;4128824;28;20238;-66
2022/12/19 08:09:16;;;;;;;31.30;15.00;;;2.10;99.90;;;;;;4129178;28;20450;-65
2022/12/19 08:11:26;;;;;;;41.33;22.20;;;2.10;99.90;;;;;;4129386;28;20214;-65
2022/12/19 08:13:26;;;;;;;40.43;18.43;;;2.10;99.90;;;;;;4128287;28;20231;-66
2022/12/19 08:15:27;;;;;;;37.93;16.80;;;2.20;99.90;;;;;;4132795;28;20443;-65
2022/12/19 08:17:28;;;;;;;37.30;17.47;;;2.30;99.90;;;;;;4132169;28;20205;-65
2022/12/19 08:19:28;;;;;;;40.20;16.87;;;2.30;99.90;;;;;;4133148;28;20657;-65
2022/12/19 08:21:29;;;;;;;35.57;16.60;;;2.40;99.90;;;;;;4132974;28;20189;-66
2022/12/19 08:23:30;;;;;;;34.37;17.50;;;2.50;99.90;;;;;;4132492;28;20307;-66
2022/12/19 08:25:30;;;;;;;34.40;16.20;;;2.60;99.90;;;;;;4132672;28;20192;-66
2022/12/19 08:27:31;;;;;;;33.10;15.13;;;2.70;99.90;;;;;;4132033;28;20213;-66
2022/12/19 08:29:32;;;;;;;33.27;15.23;;;2.70;99.90;;;;;;4132649;28;20181;-65
2022/12/19 08:31:32;;;;;;;31.30;13.60;;;2.90;99.90;;;;;;4132617;28;20738;-66
2022/12/19 08:33:33;;;;;;;32.30;13.33;;;2.90;99.90;;;;;;4132490;28;20276;-66
2022/12/19 08:35:36;;;;;;;23.87;11.83;;;2.90;99.90;;;;;;4132381;28;20190;-65
2022/12/19 08:37:36;;;;;;;24.97;10.77;;;2.90;99.90;;;;;;4131987;28;20676;-65
2022/12/19 08:39:37;;;;;;;23.73;10.73;;;2.90;99.90;;;;;;4098930;29;20541;-65
2022/12/19 08:41:38;;;;;;;21.23;10.53;;;3.00;99.90;;;;;;4132357;28;20201;-65
2022/12/19 08:43:38;;;;;;;25.67;10.97;;;3.00;99.90;;;;;;4132417;28;20312;-66
2022/12/19 08:45:39;;;;;;;26.60;13.57;;;3.20;99.90;;;;;;4132297;28;20214;-66
2022/12/19 08:47:40;;;;;;;23.80;11.23;;;3.20;99.60;;;;;;4131592;28;20204;-65
2022/12/19 08:49:41;;;;;;;26.00;11.50;;;3.40;99.50;;;;;;4132419;28;20182;-65
2022/12/19 08:51:41;;;;;;;22.13;9.77;;;3.50;98.80;;;;;;4127060;28;20183;-66
2022/12/19 08:53:44;;;;;;;17.80;9.43;;;3.50;98.90;;;;;;4116255;28;20589;-65
2022/12/19 08:55:44;;;;;;;19.50;10.37;;;3.50;99.10;;;;;;4098685;29;20587;-65
2022/12/19 08:57:45;;;;;;;19.73;9.90;;;3.80;98.70;;;;;;4115291;28;20454;-66
2022/12/19 08:59:46;;;;;;;18.10;9.00;;;4.10;97.90;;;;;;4115960;28;20187;-66
2022/12/19 09:01:46;;;;;;;17.53;8.27;;;4.20;97.50;;;;;;4122772;28;20190;-65
2022/12/19 09:03:47;;;;;;;20.67;10.67;;;4.30;97.60;;;;;;4114451;28;20179;-66
2022/12/19 09:05:59;;;;;;;23.73;12.10;;;4.50;97.00;;;;;;4114536;28;20179;-66
2022/12/19 09:07:59;;;;;;;23.17;12.07;;;4.60;96.00;;;;;;4130960;28;20225;-66
2022/12/19 09:10:00;;;;;;;23.30;12.57;;;4.70;94.60;;;;;;4114494;28;20834;-66
2022/12/19 09:12:01;;;;;;;21.10;11.77;;;4.70;94.80;;;;;;4131720;28;20209;-66
2022/12/19 09:14:03;;;;;;;22.40;11.53;;;5.00;94.10;;;;;;4131645;28;20680;-67
2022/12/19 09:16:13;;;;;;;15.63;8.53;;;5.30;93.60;;;;;;4130407;28;20228;-66
2022/12/19 09:18:13;;;;;;;17.70;9.20;;;5.40;94.20;;;;;;4113836;28;20438;-66
2022/12/19 09:20:14;;;;;;;11.73;6.20;;;5.80;93.20;;;;;;4131679;28;20432;-66
2022/12/19 09:22:15;;;;;;;12.43;6.40;;;6.10;92.10;;;;;;4131495;28;20198;-65
2022/12/19 09:24:16;;;;;;;11.17;6.07;;;6.10;92.00;;;;;;4114123;28;20172;-66
2022/12/19 09:26:18;;;;;;;9.53;6.00;;;6.20;92.50;;;;;;4131178;28;20568;-65
2022/12/19 09:28:18;;;;;;;10.23;5.80;;;6.40;91.80;;;;;;4131077;28;20285;-66
2022/12/19 09:30:19;;;;;;;10.60;6.27;;;6.50;91.10;;;;;;4131477;28;20801;-66
2022/12/19 09:32:20;;;;;;;12.27;6.83;;;6.90;90.10;;;;;;4131724;28;20195;-65
2022/12/19 09:34:21;;;;;;;12.30;6.30;;;6.90;88.10;;;;;;4131834;28;20182;-65
2022/12/19 09:36:24;;;;;;;13.07;6.67;;;7.00;87.50;;;;;;4130941;28;20187;-65
2022/12/19 09:38:26;;;;;;;13.20;6.80;;;6.50;89.00;;;;;;4113977;28;20613;-66
2022/12/19 09:40:34;;;;;;;12.93;7.37;;;6.00;91.60;;;;;;4131348;28;20179;-67
2022/12/19 09:42:55;;;;;;;12.67;7.00;;;5.90;92.30;;;;;;4113617;28;20462;-67
2022/12/19 09:45:10;;;;;;;10.57;6.30;;;6.30;91.70;;;;;;4129838;28;21040;-65
2022/12/19 09:47:13;;;;;;;10.80;6.13;;;6.50;90.90;;;;;;4130366;28;20305;-66
2022/12/19 09:49:28;;;;;;;11.30;6.30;;;6.40;90.20;;;;;;4113952;28;20202;-66
2022/12/19 09:51:33;;;;;;;12.33;6.63;;;6.40;90.70;;;;;;4113763;28;20498;-65
2022/12/19 09:54:08;;;;;;;14.50;7.00;;;6.40;90.70;;;;;;4112433;28;20426;-66
2022/12/19 09:56:14;;;;;;;11.67;6.57;;;6.50;90.50;;;;;;4095910;28;20214;-64
2022/12/19 09:58:29;;;;;;;12.27;7.50;;;6.20;90.80;;;;;;4111839;28;20215;-65
2022/12/19 10:00:43;;;;;;;15.57;7.63;;;6.10;91.50;;;;;;4110331;28;20188;-64
2022/12/19 10:02:58;;;;;;;14.53;7.37;;;6.20;91.40;;;;;;4113286;28;20454;-66
2022/12/19 10:05:17;;;;;;;14.63;7.50;;;6.40;90.70;;;;;;4112374;28;20437;-67
2022/12/19 10:07:21;;;;;;;14.57;8.23;;;6.30;90.50;;;;;;4111229;28;20450;-66
2022/12/19 10:09:29;;;;;;;13.17;7.70;;;6.10;91.30;;;;;;4126626;28;20467;-66
2022/12/19 10:11:54;;;;;;;12.80;7.03;;;6.10;91.40;;;;;;4130201;28;20935;-67
2022/12/19 10:14:07;;;;;;;15.23;8.17;;;6.00;91.60;;;;;;4113346;28;20410;-65
2022/12/19 10:16:59;;;;;;;16.33;7.83;;;5.70;92.40;;;;;;4117006;28;20433;-65
2022/12/19 10:19:05;;;;;;;14.17;7.20;;;5.50;93.30;;;;;;4127900;28;20422;-67
2022/12/19 10:21:11;;;;;;;13.17;7.03;;;5.50;93.70;;;;;;4113127;28;20430;-66
2022/12/19 10:23:56;;;;;;;13.23;6.93;;;5.70;93.40;;;;;;4117319;28;20539;-66
2022/12/19 10:26:29;;;;;;;12.57;6.53;;;5.80;93.10;;;;;;4124250;28;20281;-65
2022/12/19 10:29:07;;;;;;;11.57;6.53;;;5.90;93.00;;;;;;4130193;28;20908;-66
2022/12/19 10:31:17;;;;;;;12.97;6.93;;;6.10;92.50;;;;;;4117143;28;20430;-65
2022/12/19 10:34:03;;;;;;;12.37;7.10;;;6.30;91.80;;;;;;4124870;28;20174;-65
2022/12/19 10:36:09;;;;;;;11.70;7.03;;;6.50;91.30;;;;;;4080845;28;20202;-66
2022/12/19 10:38:10;;;;;;;10.13;6.37;;;6.40;91.50;;;;;;4135106;28;20455;-66
2022/12/19 10:40:22;;;;;;;14.53;7.43;;;6.40;92.30;;;;;;4129870;28;20468;-66
2022/12/19 10:43:04;;;;;;;15.03;7.33;;;6.60;90.90;;;;;;4114457;28;20265;-65
2022/12/19 10:45:17;;;;;;;11.00;6.70;;;6.70;90.20;;;;;;4123068;28;20216;-65
2022/12/19 10:47:18;;;;;;;14.47;8.10;;;7.10;88.30;;;;;;4135445;28;20194;-65
2022/12/19 10:49:23;;;;;;;12.33;6.70;;;7.30;86.00;;;;;;4130775;28;20183;-65
2022/12/19 10:51:28;;;;;;;13.93;8.37;;;7.40;86.10;;;;;;4136625;28;20188;-66
2022/12/19 10:53:30;;;;;;;10.93;7.00;;;7.60;85.00;;;;;;4123321;28;20257;-64